sensor_id;sensor_type;location;lat;lon;timestamp;P1;durP1;ratioP1;P2;durP2;ratioP2
7267;SDS011;3675;43.276;27.962;2024-03-22T00:01:17;7.10;;;5.22;;
7267;SDS011;3675;43.276;27.962;2024-03-22T00:03:56;7.22;;;4.53;;
7267;SDS011;3675;43.276;27.962;2024-03-22T00:06:46;8.38;;;4.70;;
7267;SDS011;3675;43.276;27.962;2024-03-22T00:09:20;9.20;;;4.93;;
7267;SDS011;3675;43.276;27.962;2024-03-22T00:12:15;10.13;;;5.53;;
7267;SDS011;3675;43.276;27.962;2024-03-22T00:15:10;9.35;;;5.32;;
7267;SDS011;3675;43.276;27.962;2024-03-22T00:17:49;11.25;;;5.38;;
7267;SDS011;3675;43.276;27.962;2024-03-22T00:22:59;7.43;;;4.57;;
7267;SDS011;3675;43.276;27.962;2024-03-22T00:25:38;6.45;;;4.20;;
7267;SDS011;3675;43.276;27.962;2024-03-22T00:28:16;7.00;;;4.07;;
7267;SDS011;3675;43.276;27.962;2024-03-22T00:31:07;7.30;;;4.05;;
7267;SDS011;3675;43.276;27.962;2024-03-22T00:33:54;8.30;;;5.50;;
7267;SDS011;3675;43.276;27.962;2024-03-22T00:36:42;9.13;;;4.95;;
7267;SDS011;3675;43.276;27.962;2024-03-22T00:39:23;7.47;;;4.35;;
7267;SDS011;3675;43.276;27.962;2024-03-22T00:41:58;9.88;;;4.90;;
7267;SDS011;3675;43.276;27.962;2024-03-22T00:45:20;9.55;;;4.97;;
7267;SDS011;3675;43.276;27.962;2024-03-22T00:48:22;9.23;;;4.80;;
7267;SDS011;3675;43.276;27.962;2024-03-22T00:51:15;8.35;;;4.95;;
7267;SDS011;3675;43.276;27.962;2024-03-22T00:54:17;9.82;;;5.63;;
7267;SDS011;3675;43.276;27.962;2024-03-22T00:57:30;8.30;;;4.95;;
7267;SDS011;3675;43.276;27.962;2024-03-22T01:00:16;10.32;;;5.40;;
7267;SDS011;3675;43.276;27.962;2024-03-22T01:03:01;12.75;;;5.82;;
7267;SDS011;3675;43.276;27.962;2024-03-22T01:05:39;8.68;;;4.65;;
7267;SDS011;3675;43.276;27.962;2024-03-22T01:08:12;9.25;;;5.05;;
7267;SDS011;3675;43.276;27.962;2024-03-22T01:11:18;7.97;;;4.40;;
7267;SDS011;3675;43.276;27.962;2024-03-22T01:14:19;7.53;;;4.55;;
7267;SDS011;3675;43.276;27.962;2024-03-22T01:16:59;8.00;;;4.78;;
7267;SDS011;3675;43.276;27.962;2024-03-22T01:19:59;10.00;;;4.93;;
7267;SDS011;3675;43.276;27.962;2024-03-22T01:23:11;8.30;;;4.60;;
7267;SDS011;3675;43.276;27.962;2024-03-22T01:25:45;8.93;;;4.82;;
7267;SDS011;3675;43.276;27.962;2024-03-22T01:28:39;10.73;;;5.63;;
7267;SDS011;3675;43.276;27.962;2024-03-22T01:31:27;6.80;;;4.35;;
7267;SDS011;3675;43.276;27.962;2024-03-22T01:34:21;8.63;;;5.38;;
7267;SDS011;3675;43.276;27.962;2024-03-22T01:36:58;8.52;;;4.85;;
7267;SDS011;3675;43.276;27.962;2024-03-22T01:40:20;9.70;;;5.93;;
7267;SDS011;3675;43.276;27.962;2024-03-22T01:43:27;12.63;;;6.53;;
7267;SDS011;3675;43.276;27.962;2024-03-22T01:46:17;10.25;;;5.63;;
7267;SDS011;3675;43.276;27.962;2024-03-22T01:48:54;10.48;;;5.63;;
7267;SDS011;3675;43.276;27.962;2024-03-22T01:51:43;9.85;;;5.55;;
7267;SDS011;3675;43.276;27.962;2024-03-22T01:54:22;8.55;;;5.13;;
7267;SDS011;3675;43.276;27.962;2024-03-22T01:57:13;13.68;;;6.43;;
7267;SDS011;3675;43.276;27.962;2024-03-22T01:59:57;10.10;;;5.38;;
7267;SDS011;3675;43.276;27.962;2024-03-22T02:03:29;10.95;;;5.95;;
7267;SDS011;3675;43.276;27.962;2024-03-22T02:06:35;11.68;;;6.15;;
7267;SDS011;3675;43.276;27.962;2024-03-22T02:09:10;8.65;;;5.53;;
7267;SDS011;3675;43.276;27.962;2024-03-22T02:12:01;12.60;;;6.30;;
7267;SDS011;3675;43.276;27.962;2024-03-22T02:15:03;12.43;;;6.85;;
7267;SDS011;3675;43.276;27.962;2024-03-22T02:18:05;10.95;;;5.75;;
7267;SDS011;3675;43.276;27.962;2024-03-22T02:20:56;10.82;;;6.28;;
7267;SDS011;3675;43.276;27.962;2024-03-22T02:24:04;11.30;;;5.97;;
7267;SDS011;3675;43.276;27.962;2024-03-22T02:26:58;12.60;;;6.38;;
7267;SDS011;3675;43.276;27.962;2024-03-22T02:29:48;12.45;;;6.13;;
7267;SDS011;3675;43.276;27.962;2024-03-22T02:32:32;14.70;;;6.60;;
7267;SDS011;3675;43.276;27.962;2024-03-22T02:35:28;13.07;;;6.45;;
7267;SDS011;3675;43.276;27.962;2024-03-22T02:38:11;11.50;;;6.20;;
7267;SDS011;3675;43.276;27.962;2024-03-22T02:47:41;13.50;;;6.38;;
7267;SDS011;3675;43.276;27.962;2024-03-22T02:50:20;11.02;;;5.65;;
7267;SDS011;3675;43.276;27.962;2024-03-22T02:52:50;11.18;;;6.40;;
7267;SDS011;3675;43.276;27.962;2024-03-22T02:55:47;12.40;;;6.10;;
7267;SDS011;3675;43.276;27.962;2024-03-22T02:58:36;12.23;;;6.18;;
7267;SDS011;3675;43.276;27.962;2024-03-22T03:01:13;12.65;;;7.32;;
7267;SDS011;3675;43.276;27.962;2024-03-22T03:03:49;14.57;;;6.60;;
7267;SDS011;3675;43.276;27.962;2024-03-22T03:06:31;10.68;;;6.35;;
7267;SDS011;3675;43.276;27.962;2024-03-22T03:09:09;13.57;;;7.75;;
7267;SDS011;3675;43.276;27.962;2024-03-22T03:12:11;13.40;;;5.90;;
7267;SDS011;3675;43.276;27.962;2024-03-22T03:15:11;13.27;;;7.00;;
7267;SDS011;3675;43.276;27.962;2024-03-22T03:17:59;16.17;;;7.38;;
7267;SDS011;3675;43.276;27.962;2024-03-22T03:20:48;12.68;;;6.28;;
7267;SDS011;3675;43.276;27.962;2024-03-22T03:23:34;13.57;;;7.32;;
7267;SDS011;3675;43.276;27.962;2024-03-22T03:26:21;13.80;;;6.30;;
7267;SDS011;3675;43.276;27.962;2024-03-22T03:29:22;14.02;;;7.18;;
7267;SDS011;3675;43.276;27.962;2024-03-22T03:32:06;13.05;;;6.75;;
7267;SDS011;3675;43.276;27.962;2024-03-22T03:34:43;14.60;;;7.68;;
7267;SDS011;3675;43.276;27.962;2024-03-22T03:37:24;12.98;;;6.05;;
7267;SDS011;3675;43.276;27.962;2024-03-22T03:40:13;14.35;;;7.00;;
7267;SDS011;3675;43.276;27.962;2024-03-22T03:42:52;10.60;;;5.93;;
7267;SDS011;3675;43.276;27.962;2024-03-22T03:45:45;12.45;;;6.28;;
7267;SDS011;3675;43.276;27.962;2024-03-22T03:48:33;12.68;;;6.38;;
7267;SDS011;3675;43.276;27.962;2024-03-22T03:51:18;13.60;;;6.75;;
7267;SDS011;3675;43.276;27.962;2024-03-22T03:53:53;13.45;;;7.07;;
7267;SDS011;3675;43.276;27.962;2024-03-22T03:56:25;15.18;;;6.95;;
7267;SDS011;3675;43.276;27.962;2024-03-22T03:59:04;11.93;;;6.45;;
7267;SDS011;3675;43.276;27.962;2024-03-22T04:02:20;12.45;;;5.72;;
7267;SDS011;3675;43.276;27.962;2024-03-22T04:05:25;12.32;;;6.18;;
7267;SDS011;3675;43.276;27.962;2024-03-22T04:08:24;13.10;;;6.47;;
7267;SDS011;3675;43.276;27.962;2024-03-22T04:11:09;10.18;;;5.93;;
7267;SDS011;3675;43.276;27.962;2024-03-22T04:13:53;13.52;;;7.30;;
7267;SDS011;3675;43.276;27.962;2024-03-22T04:19:51;11.18;;;5.78;;
7267;SDS011;3675;43.276;27.962;2024-03-22T04:22:34;12.73;;;6.88;;
7267;SDS011;3675;43.276;27.962;2024-03-22T04:25:25;13.70;;;6.70;;
7267;SDS011;3675;43.276;27.962;2024-03-22T04:28:13;12.50;;;6.40;;
7267;SDS011;3675;43.276;27.962;2024-03-22T04:31:09;11.98;;;5.75;;
7267;SDS011;3675;43.276;27.962;2024-03-22T04:33:48;13.13;;;6.53;;
7267;SDS011;3675;43.276;27.962;2024-03-22T04:36:52;12.13;;;6.85;;
7267;SDS011;3675;43.276;27.962;2024-03-22T04:39:50;12.52;;;6.20;;
7267;SDS011;3675;43.276;27.962;2024-03-22T04:42:41;13.15;;;7.00;;
7267;SDS011;3675;43.276;27.962;2024-03-22T04:45:42;11.68;;;5.78;;
7267;SDS011;3675;43.276;27.962;2024-03-22T04:48:38;13.93;;;6.68;;
7267;SDS011;3675;43.276;27.962;2024-03-22T04:54:53;14.52;;;6.47;;
7267;SDS011;3675;43.276;27.962;2024-03-22T04:57:47;14.35;;;6.55;;
7267;SDS011;3675;43.276;27.962;2024-03-22T05:00:19;15.25;;;7.35;;
7267;SDS011;3675;43.276;27.962;2024-03-22T05:03:08;10.38;;;5.78;;
7267;SDS011;3675;43.276;27.962;2024-03-22T05:05:54;14.40;;;7.22;;
7267;SDS011;3675;43.276;27.962;2024-03-22T05:09:00;14.90;;;6.72;;
7267;SDS011;3675;43.276;27.962;2024-03-22T05:11:59;11.52;;;6.38;;
7267;SDS011;3675;43.276;27.962;2024-03-22T05:16:47;14.07;;;6.95;;
7267;SDS011;3675;43.276;27.962;2024-03-22T05:17:58;16.17;;;6.60;;
7267;SDS011;3675;43.276;27.962;2024-03-22T05:20:49;15.10;;;7.28;;
7267;SDS011;3675;43.276;27.962;2024-03-22T05:23:42;17.08;;;7.53;;
7267;SDS011;3675;43.276;27.962;2024-03-22T05:26:26;13.63;;;6.95;;
7267;SDS011;3675;43.276;27.962;2024-03-22T05:32:21;11.25;;;5.78;;
7267;SDS011;3675;43.276;27.962;2024-03-22T05:35:08;12.05;;;6.18;;
7267;SDS011;3675;43.276;27.962;2024-03-22T05:37:49;12.45;;;6.85;;
7267;SDS011;3675;43.276;27.962;2024-03-22T05:40:40;13.15;;;6.80;;
7267;SDS011;3675;43.276;27.962;2024-03-22T05:43:24;10.30;;;5.93;;
7267;SDS011;3675;43.276;27.962;2024-03-22T05:46:15;12.02;;;7.25;;
7267;SDS011;3675;43.276;27.962;2024-03-22T05:49:26;11.52;;;5.95;;
7267;SDS011;3675;43.276;27.962;2024-03-22T05:52:03;13.60;;;6.75;;
7267;SDS011;3675;43.276;27.962;2024-03-22T05:54:45;13.07;;;6.45;;
7267;SDS011;3675;43.276;27.962;2024-03-22T05:57:34;9.70;;;6.15;;
7267;SDS011;3675;43.276;27.962;2024-03-22T06:00:10;15.15;;;6.80;;
7267;SDS011;3675;43.276;27.962;2024-03-22T06:02:57;15.05;;;7.20;;
7267;SDS011;3675;43.276;27.962;2024-03-22T06:06:01;12.98;;;6.43;;
7267;SDS011;3675;43.276;27.962;2024-03-22T06:09:00;12.40;;;6.75;;
7267;SDS011;3675;43.276;27.962;2024-03-22T06:11:50;11.73;;;6.60;;
7267;SDS011;3675;43.276;27.962;2024-03-22T06:14:32;11.85;;;5.63;;
7267;SDS011;3675;43.276;27.962;2024-03-22T06:17:32;12.10;;;6.03;;
7267;SDS011;3675;43.276;27.962;2024-03-22T06:20:20;11.02;;;5.80;;
7267;SDS011;3675;43.276;27.962;2024-03-22T06:23:17;9.00;;;6.10;;
7267;SDS011;3675;43.276;27.962;2024-03-22T06:26:11;10.98;;;6.10;;
7267;SDS011;3675;43.276;27.962;2024-03-22T06:29:00;9.77;;;5.10;;
7267;SDS011;3675;43.276;27.962;2024-03-22T06:31:58;8.57;;;5.70;;
7267;SDS011;3675;43.276;27.962;2024-03-22T06:34:39;8.65;;;5.00;;
7267;SDS011;3675;43.276;27.962;2024-03-22T06:37:22;7.85;;;5.03;;
7267;SDS011;3675;43.276;27.962;2024-03-22T06:40:06;8.95;;;5.07;;
7267;SDS011;3675;43.276;27.962;2024-03-22T06:42:51;7.38;;;4.45;;
7267;SDS011;3675;43.276;27.962;2024-03-22T06:48:30;8.63;;;4.63;;
7267;SDS011;3675;43.276;27.962;2024-03-22T06:51:37;7.55;;;4.70;;
7267;SDS011;3675;43.276;27.962;2024-03-22T06:54:46;7.78;;;4.53;;
7267;SDS011;3675;43.276;27.962;2024-03-22T06:57:56;7.18;;;4.10;;
7267;SDS011;3675;43.276;27.962;2024-03-22T07:00:42;6.10;;;3.55;;
7267;SDS011;3675;43.276;27.962;2024-03-22T07:03:23;4.78;;;3.78;;
7267;SDS011;3675;43.276;27.962;2024-03-22T07:06:20;5.53;;;3.63;;
7267;SDS011;3675;43.276;27.962;2024-03-22T07:09:04;6.30;;;3.88;;
7267;SDS011;3675;43.276;27.962;2024-03-22T07:11:59;8.00;;;4.45;;
7267;SDS011;3675;43.276;27.962;2024-03-22T07:14:40;7.28;;;3.78;;
7267;SDS011;3675;43.276;27.962;2024-03-22T07:17:52;5.93;;;3.42;;
7267;SDS011;3675;43.276;27.962;2024-03-22T07:23:58;5.82;;;3.88;;
7267;SDS011;3675;43.276;27.962;2024-03-22T07:26:38;6.45;;;3.30;;
7267;SDS011;3675;43.276;27.962;2024-03-22T07:29:58;6.63;;;3.97;;
7267;SDS011;3675;43.276;27.962;2024-03-22T07:32:51;6.43;;;4.18;;
7267;SDS011;3675;43.276;27.962;2024-03-22T07:35:27;7.28;;;4.47;;
7267;SDS011;3675;43.276;27.962;2024-03-22T07:38:20;6.53;;;3.92;;
7267;SDS011;3675;43.276;27.962;2024-03-22T07:41:05;8.10;;;4.93;;
7267;SDS011;3675;43.276;27.962;2024-03-22T07:43:38;7.50;;;4.75;;
7267;SDS011;3675;43.276;27.962;2024-03-22T07:46:49;8.23;;;4.68;;
7267;SDS011;3675;43.276;27.962;2024-03-22T07:49:39;10.93;;;5.85;;
7267;SDS011;3675;43.276;27.962;2024-03-22T07:52:33;10.30;;;5.57;;
7267;SDS011;3675;43.276;27.962;2024-03-22T07:55:24;9.57;;;5.95;;
7267;SDS011;3675;43.276;27.962;2024-03-22T07:58:00;9.38;;;5.35;;
7267;SDS011;3675;43.276;27.962;2024-03-22T08:00:43;6.72;;;4.95;;
7267;SDS011;3675;43.276;27.962;2024-03-22T08:03:41;9.00;;;5.35;;
7267;SDS011;3675;43.276;27.962;2024-03-22T08:06:24;6.53;;;4.47;;
7267;SDS011;3675;43.276;27.962;2024-03-22T08:09:13;8.13;;;4.65;;
7267;SDS011;3675;43.276;27.962;2024-03-22T08:12:00;8.25;;;4.88;;
7267;SDS011;3675;43.276;27.962;2024-03-22T08:14:36;7.30;;;5.25;;
7267;SDS011;3675;43.276;27.962;2024-03-22T08:17:22;7.18;;;4.70;;
7267;SDS011;3675;43.276;27.962;2024-03-22T08:23:37;8.05;;;4.80;;
7267;SDS011;3675;43.276;27.962;2024-03-22T08:26:17;6.57;;;4.63;;
7267;SDS011;3675;43.276;27.962;2024-03-22T08:29:08;10.82;;;5.65;;
7267;SDS011;3675;43.276;27.962;2024-03-22T08:31:51;8.15;;;5.43;;
7267;SDS011;3675;43.276;27.962;2024-03-22T08:34:39;8.90;;;5.70;;
7267;SDS011;3675;43.276;27.962;2024-03-22T08:37:19;7.32;;;4.95;;
7267;SDS011;3675;43.276;27.962;2024-03-22T08:40:05;9.35;;;5.55;;
7267;SDS011;3675;43.276;27.962;2024-03-22T08:42:50;9.35;;;5.97;;
7267;SDS011;3675;43.276;27.962;2024-03-22T08:45:34;7.88;;;5.25;;
7267;SDS011;3675;43.276;27.962;2024-03-22T08:51:19;7.88;;;4.78;;
7267;SDS011;3675;43.276;27.962;2024-03-22T08:54:47;7.13;;;4.97;;
7267;SDS011;3675;43.276;27.962;2024-03-22T08:57:35;8.82;;;5.05;;
7267;SDS011;3675;43.276;27.962;2024-03-22T09:00:22;7.80;;;5.28;;
7267;SDS011;3675;43.276;27.962;2024-03-22T09:03:05;7.38;;;5.30;;
7267;SDS011;3675;43.276;27.962;2024-03-22T09:05:54;8.13;;;5.43;;
7267;SDS011;3675;43.276;27.962;2024-03-22T09:08:56;8.50;;;5.68;;
7267;SDS011;3675;43.276;27.962;2024-03-22T09:11:57;7.88;;;5.28;;
7267;SDS011;3675;43.276;27.962;2024-03-22T09:17:35;8.13;;;5.07;;
7267;SDS011;3675;43.276;27.962;2024-03-22T09:20:41;7.38;;;4.82;;
7267;SDS011;3675;43.276;27.962;2024-03-22T09:23:33;7.68;;;4.22;;
7267;SDS011;3675;43.276;27.962;2024-03-22T09:30:02;7.25;;;4.40;;
7267;SDS011;3675;43.276;27.962;2024-03-22T09:33:40;5.50;;;4.32;;
7267;SDS011;3675;43.276;27.962;2024-03-22T09:36:27;5.75;;;4.00;;
7267;SDS011;3675;43.276;27.962;2024-03-22T09:39:25;5.05;;;3.70;;
7267;SDS011;3675;43.276;27.962;2024-03-22T09:52:06;5.78;;;3.90;;
7267;SDS011;3675;43.276;27.962;2024-03-22T09:55:07;4.95;;;3.45;;
7267;SDS011;3675;43.276;27.962;2024-03-22T09:58:10;5.95;;;4.18;;
7267;SDS011;3675;43.276;27.962;2024-03-22T10:01:16;5.00;;;3.55;;
7267;SDS011;3675;43.276;27.962;2024-03-22T10:04:23;5.28;;;3.28;;
7267;SDS011;3675;43.276;27.962;2024-03-22T10:09:45;6.25;;;4.20;;
7267;SDS011;3675;43.276;27.962;2024-03-22T10:12:27;5.60;;;3.42;;
7267;SDS011;3675;43.276;27.962;2024-03-22T10:15:23;5.82;;;4.15;;
7267;SDS011;3675;43.276;27.962;2024-03-22T10:18:17;4.18;;;3.05;;
7267;SDS011;3675;43.276;27.962;2024-03-22T10:21:00;6.03;;;3.72;;
7267;SDS011;3675;43.276;27.962;2024-03-22T10:27:33;6.50;;;4.00;;
7267;SDS011;3675;43.276;27.962;2024-03-22T10:30:17;4.57;;;3.67;;
7267;SDS011;3675;43.276;27.962;2024-03-22T10:33:05;6.47;;;3.88;;
7267;SDS011;3675;43.276;27.962;2024-03-22T10:35:49;8.20;;;4.45;;
7267;SDS011;3675;43.276;27.962;2024-03-22T10:38:40;6.80;;;4.25;;
7267;SDS011;3675;43.276;27.962;2024-03-22T10:41:32;7.00;;;4.25;;
7267;SDS011;3675;43.276;27.962;2024-03-22T10:44:44;7.10;;;3.72;;
7267;SDS011;3675;43.276;27.962;2024-03-22T10:48:26;6.25;;;4.28;;
7267;SDS011;3675;43.276;27.962;2024-03-22T10:51:51;8.13;;;4.25;;
7267;SDS011;3675;43.276;27.962;2024-03-22T10:55:03;6.03;;;3.60;;
7267;SDS011;3675;43.276;27.962;2024-03-22T10:57:51;7.10;;;4.45;;
7267;SDS011;3675;43.276;27.962;2024-03-22T11:01:20;6.57;;;4.65;;
7267;SDS011;3675;43.276;27.962;2024-03-22T11:04:21;6.30;;;4.45;;
7267;SDS011;3675;43.276;27.962;2024-03-22T11:07:08;8.63;;;4.93;;
7267;SDS011;3675;43.276;27.962;2024-03-22T11:10:18;7.43;;;4.55;;
7267;SDS011;3675;43.276;27.962;2024-03-22T11:13:18;8.63;;;5.85;;
7267;SDS011;3675;43.276;27.962;2024-03-22T11:15:53;6.72;;;4.97;;
7267;SDS011;3675;43.276;27.962;2024-03-22T11:21:52;8.60;;;5.10;;
7267;SDS011;3675;43.276;27.962;2024-03-22T11:29:03;6.25;;;4.63;;
7267;SDS011;3675;43.276;27.962;2024-03-22T11:35:24;7.43;;;5.07;;
7267;SDS011;3675;43.276;27.962;2024-03-22T11:38:08;7.53;;;5.07;;
7267;SDS011;3675;43.276;27.962;2024-03-22T11:40:47;6.85;;;4.72;;
7267;SDS011;3675;43.276;27.962;2024-03-22T11:43:34;6.95;;;4.68;;
7267;SDS011;3675;43.276;27.962;2024-03-22T11:46:31;5.32;;;4.07;;
7267;SDS011;3675;43.276;27.962;2024-03-22T11:50:33;7.55;;;5.28;;
7267;SDS011;3675;43.276;27.962;2024-03-22T11:52:37;6.60;;;4.90;;
7267;SDS011;3675;43.276;27.962;2024-03-22T11:56:21;5.40;;;4.40;;
7267;SDS011;3675;43.276;27.962;2024-03-22T11:59:18;6.65;;;4.55;;
7267;SDS011;3675;43.276;27.962;2024-03-22T12:01:54;5.72;;;4.65;;
7267;SDS011;3675;43.276;27.962;2024-03-22T12:04:45;6.78;;;4.85;;
7267;SDS011;3675;43.276;27.962;2024-03-22T12:07:24;5.72;;;3.85;;
7267;SDS011;3675;43.276;27.962;2024-03-22T12:09:54;4.75;;;4.13;;
7267;SDS011;3675;43.276;27.962;2024-03-22T12:12:44;6.25;;;4.78;;
7267;SDS011;3675;43.276;27.962;2024-03-22T12:15:20;6.15;;;4.30;;
7267;SDS011;3675;43.276;27.962;2024-03-22T12:17:54;6.93;;;4.43;;
7267;SDS011;3675;43.276;27.962;2024-03-22T12:20:33;5.20;;;4.25;;
7267;SDS011;3675;43.276;27.962;2024-03-22T12:23:25;5.22;;;3.90;;
7267;SDS011;3675;43.276;27.962;2024-03-22T12:26:04;4.85;;;3.40;;
7267;SDS011;3675;43.276;27.962;2024-03-22T12:28:42;5.35;;;4.18;;
7267;SDS011;3675;43.276;27.962;2024-03-22T12:31:16;4.93;;;4.00;;
7267;SDS011;3675;43.276;27.962;2024-03-22T12:33:53;6.22;;;3.95;;
7267;SDS011;3675;43.276;27.962;2024-03-22T12:36:30;4.50;;;3.55;;
7267;SDS011;3675;43.276;27.962;2024-03-22T12:39:07;5.65;;;3.85;;
7267;SDS011;3675;43.276;27.962;2024-03-22T12:41:54;5.28;;;3.45;;
7267;SDS011;3675;43.276;27.962;2024-03-22T12:44:42;5.53;;;3.42;;
7267;SDS011;3675;43.276;27.962;2024-03-22T12:47:17;7.28;;;3.72;;
7267;SDS011;3675;43.276;27.962;2024-03-22T12:50:12;5.78;;;4.35;;
7267;SDS011;3675;43.276;27.962;2024-03-22T12:52:47;7.07;;;4.07;;
7267;SDS011;3675;43.276;27.962;2024-03-22T12:55:21;4.55;;;3.70;;
7267;SDS011;3675;43.276;27.962;2024-03-22T12:58:23;3.85;;;2.92;;
7267;SDS011;3675;43.276;27.962;2024-03-22T13:01:05;4.22;;;3.40;;
7267;SDS011;3675;43.276;27.962;2024-03-22T13:03:49;5.32;;;3.70;;
7267;SDS011;3675;43.276;27.962;2024-03-22T13:06:25;5.47;;;3.70;;
7267;SDS011;3675;43.276;27.962;2024-03-22T13:09:12;3.88;;;3.08;;
7267;SDS011;3675;43.276;27.962;2024-03-22T13:11:53;5.68;;;3.85;;
7267;SDS011;3675;43.276;27.962;2024-03-22T13:14:49;5.53;;;3.88;;
7267;SDS011;3675;43.276;27.962;2024-03-22T13:17:42;5.75;;;3.88;;
7267;SDS011;3675;43.276;27.962;2024-03-22T13:20:14;5.13;;;3.83;;
7267;SDS011;3675;43.276;27.962;2024-03-22T13:23:21;5.15;;;3.88;;
7267;SDS011;3675;43.276;27.962;2024-03-22T13:26:02;4.28;;;3.15;;
7267;SDS011;3675;43.276;27.962;2024-03-22T13:29:02;3.75;;;2.92;;
7267;SDS011;3675;43.276;27.962;2024-03-22T13:31:39;5.57;;;3.10;;
7267;SDS011;3675;43.276;27.962;2024-03-22T13:37:07;4.32;;;2.88;;
7267;SDS011;3675;43.276;27.962;2024-03-22T13:39:40;4.20;;;2.78;;
7267;SDS011;3675;43.276;27.962;2024-03-22T13:42:26;6.50;;;3.28;;
7267;SDS011;3675;43.276;27.962;2024-03-22T13:45:10;4.15;;;2.88;;
7267;SDS011;3675;43.276;27.962;2024-03-22T13:47:47;5.78;;;3.80;;
7267;SDS011;3675;43.276;27.962;2024-03-22T13:50:27;5.10;;;3.00;;
7267;SDS011;3675;43.276;27.962;2024-03-22T13:53:02;6.07;;;3.53;;
7267;SDS011;3675;43.276;27.962;2024-03-22T13:55:49;4.75;;;3.13;;
7267;SDS011;3675;43.276;27.962;2024-03-22T13:59:12;6.93;;;3.47;;
7267;SDS011;3675;43.276;27.962;2024-03-22T14:01:55;5.68;;;3.42;;
7267;SDS011;3675;43.276;27.962;2024-03-22T14:04:42;5.43;;;3.92;;
7267;SDS011;3675;43.276;27.962;2024-03-22T14:07:29;5.63;;;3.80;;
7267;SDS011;3675;43.276;27.962;2024-03-22T14:10:13;5.25;;;3.58;;
7267;SDS011;3675;43.276;27.962;2024-03-22T14:13:03;5.97;;;3.42;;
7267;SDS011;3675;43.276;27.962;2024-03-22T14:16:03;4.90;;;3.90;;
7267;SDS011;3675;43.276;27.962;2024-03-22T14:18:54;7.03;;;4.50;;
7267;SDS011;3675;43.276;27.962;2024-03-22T14:21:50;6.10;;;3.65;;
7267;SDS011;3675;43.276;27.962;2024-03-22T14:24:46;4.93;;;3.53;;
7267;SDS011;3675;43.276;27.962;2024-03-22T14:27:32;5.68;;;3.40;;
7267;SDS011;3675;43.276;27.962;2024-03-22T14:30:24;7.07;;;4.60;;
7267;SDS011;3675;43.276;27.962;2024-03-22T14:33:09;4.68;;;3.60;;
7267;SDS011;3675;43.276;27.962;2024-03-22T14:35:57;4.80;;;3.72;;
7267;SDS011;3675;43.276;27.962;2024-03-22T14:38:46;4.15;;;3.42;;
7267;SDS011;3675;43.276;27.962;2024-03-22T14:41:36;5.63;;;3.63;;
7267;SDS011;3675;43.276;27.962;2024-03-22T14:47:30;5.72;;;4.38;;
7267;SDS011;3675;43.276;27.962;2024-03-22T14:50:26;6.35;;;4.03;;
7267;SDS011;3675;43.276;27.962;2024-03-22T14:54:18;5.57;;;3.80;;
7267;SDS011;3675;43.276;27.962;2024-03-22T14:57:06;4.75;;;3.97;;
7267;SDS011;3675;43.276;27.962;2024-03-22T15:00:09;6.38;;;4.43;;
7267;SDS011;3675;43.276;27.962;2024-03-22T15:02:59;6.03;;;3.80;;
7267;SDS011;3675;43.276;27.962;2024-03-22T15:05:45;5.53;;;3.42;;
7267;SDS011;3675;43.276;27.962;2024-03-22T15:08:19;4.18;;;3.55;;
7267;SDS011;3675;43.276;27.962;2024-03-22T15:10:55;6.55;;;4.28;;
7267;SDS011;3675;43.276;27.962;2024-03-22T15:13:57;5.32;;;3.55;;
7267;SDS011;3675;43.276;27.962;2024-03-22T15:17:02;5.30;;;3.47;;
7267;SDS011;3675;43.276;27.962;2024-03-22T15:20:08;4.28;;;3.88;;
7267;SDS011;3675;43.276;27.962;2024-03-22T15:23:08;4.57;;;3.78;;
7267;SDS011;3675;43.276;27.962;2024-03-22T15:26:02;4.57;;;4.18;;
7267;SDS011;3675;43.276;27.962;2024-03-22T15:28:51;6.28;;;4.70;;
7267;SDS011;3675;43.276;27.962;2024-03-22T15:31:28;6.15;;;4.63;;
7267;SDS011;3675;43.276;27.962;2024-03-22T15:34:32;4.50;;;3.78;;
7267;SDS011;3675;43.276;27.962;2024-03-22T15:37:06;5.40;;;4.45;;
7267;SDS011;3675;43.276;27.962;2024-03-22T15:39:47;6.60;;;4.57;;
7267;SDS011;3675;43.276;27.962;2024-03-22T15:42:37;6.03;;;4.80;;
7267;SDS011;3675;43.276;27.962;2024-03-22T15:45:28;7.43;;;5.50;;
7267;SDS011;3675;43.276;27.962;2024-03-22T15:48:19;6.47;;;5.28;;
7267;SDS011;3675;43.276;27.962;2024-03-22T15:51:08;4.97;;;4.22;;
7267;SDS011;3675;43.276;27.962;2024-03-22T15:54:03;7.63;;;4.80;;
7267;SDS011;3675;43.276;27.962;2024-03-22T15:57:00;5.90;;;4.50;;
7267;SDS011;3675;43.276;27.962;2024-03-22T16:03:03;7.35;;;4.93;;
7267;SDS011;3675;43.276;27.962;2024-03-22T16:05:52;7.72;;;4.60;;
7267;SDS011;3675;43.276;27.962;2024-03-22T16:08:51;9.73;;;4.82;;
7267;SDS011;3675;43.276;27.962;2024-03-22T16:11:45;6.43;;;4.45;;
7267;SDS011;3675;43.276;27.962;2024-03-22T16:14:27;17.80;;;11.38;;
7267;SDS011;3675;43.276;27.962;2024-03-22T16:17:24;15.13;;;9.63;;
7267;SDS011;3675;43.276;27.962;2024-03-22T16:20:15;14.40;;;9.05;;
7267;SDS011;3675;43.276;27.962;2024-03-22T16:23:26;15.55;;;10.13;;
7267;SDS011;3675;43.276;27.962;2024-03-22T16:26:17;19.63;;;12.05;;
7267;SDS011;3675;43.276;27.962;2024-03-22T16:29:18;19.27;;;13.57;;
7267;SDS011;3675;43.276;27.962;2024-03-22T16:32:07;25.20;;;18.15;;
7267;SDS011;3675;43.276;27.962;2024-03-22T16:34:49;24.88;;;14.20;;
7267;SDS011;3675;43.276;27.962;2024-03-22T16:38:01;20.85;;;12.85;;
7267;SDS011;3675;43.276;27.962;2024-03-22T16:41:02;23.75;;;13.10;;
7267;SDS011;3675;43.276;27.962;2024-03-22T16:44:04;23.77;;;13.13;;
7267;SDS011;3675;43.276;27.962;2024-03-22T16:47:00;21.23;;;12.35;;
7267;SDS011;3675;43.276;27.962;2024-03-22T16:49:53;32.45;;;19.45;;
7267;SDS011;3675;43.276;27.962;2024-03-22T16:53:15;34.72;;;21.45;;
7267;SDS011;3675;43.276;27.962;2024-03-22T16:56:27;29.63;;;20.05;;
7267;SDS011;3675;43.276;27.962;2024-03-22T16:59:29;38.50;;;22.80;;
7267;SDS011;3675;43.276;27.962;2024-03-22T17:02:17;30.00;;;17.05;;
7267;SDS011;3675;43.276;27.962;2024-03-22T17:05:00;34.28;;;18.92;;
7267;SDS011;3675;43.276;27.962;2024-03-22T17:08:21;47.45;;;25.63;;
7267;SDS011;3675;43.276;27.962;2024-03-22T17:11:03;33.15;;;17.98;;
7267;SDS011;3675;43.276;27.962;2024-03-22T17:13:52;31.90;;;16.05;;
7267;SDS011;3675;43.276;27.962;2024-03-22T17:16:50;33.53;;;18.75;;
7267;SDS011;3675;43.276;27.962;2024-03-22T17:19:46;77.20;;;42.22;;
7267;SDS011;3675;43.276;27.962;2024-03-22T17:22:44;54.47;;;31.25;;
7267;SDS011;3675;43.276;27.962;2024-03-22T17:26:00;35.33;;;24.30;;
7267;SDS011;3675;43.276;27.962;2024-03-22T17:28:54;40.80;;;27.25;;
7267;SDS011;3675;43.276;27.962;2024-03-22T17:32:14;37.40;;;31.23;;
7267;SDS011;3675;43.276;27.962;2024-03-22T17:35:05;42.58;;;31.92;;
7267;SDS011;3675;43.276;27.962;2024-03-22T17:37:59;34.63;;;27.42;;
7267;SDS011;3675;43.276;27.962;2024-03-22T17:41:08;28.42;;;22.02;;
7267;SDS011;3675;43.276;27.962;2024-03-22T17:46:58;30.70;;;27.40;;
7267;SDS011;3675;43.276;27.962;2024-03-22T17:49:48;34.20;;;26.52;;
7267;SDS011;3675;43.276;27.962;2024-03-22T17:52:41;45.47;;;35.63;;
7267;SDS011;3675;43.276;27.962;2024-03-22T17:55:32;30.45;;;24.10;;
7267;SDS011;3675;43.276;27.962;2024-03-22T17:58:23;22.48;;;18.77;;
7267;SDS011;3675;43.276;27.962;2024-03-22T18:01:12;22.85;;;15.38;;
7267;SDS011;3675;43.276;27.962;2024-03-22T18:03:56;15.32;;;10.25;;
7267;SDS011;3675;43.276;27.962;2024-03-22T18:06:44;18.00;;;12.82;;
7267;SDS011;3675;43.276;27.962;2024-03-22T18:09:54;24.23;;;16.92;;
7267;SDS011;3675;43.276;27.962;2024-03-22T18:15:47;12.70;;;8.20;;
7267;SDS011;3675;43.276;27.962;2024-03-22T18:21:24;17.55;;;11.32;;
7267;SDS011;3675;43.276;27.962;2024-03-22T18:24:39;12.30;;;8.43;;
7267;SDS011;3675;43.276;27.962;2024-03-22T18:30:55;11.77;;;7.43;;
7267;SDS011;3675;43.276;27.962;2024-03-22T18:37:02;20.58;;;14.48;;
7267;SDS011;3675;43.276;27.962;2024-03-22T18:39:55;18.98;;;13.82;;
7267;SDS011;3675;43.276;27.962;2024-03-22T18:42:38;20.70;;;13.68;;
7267;SDS011;3675;43.276;27.962;2024-03-22T18:45:51;18.90;;;10.85;;
7267;SDS011;3675;43.276;27.962;2024-03-22T18:48:52;13.23;;;8.52;;
7267;SDS011;3675;43.276;27.962;2024-03-22T18:51:57;10.25;;;6.28;;